OIKQ  Dayrestan  Airport

Iran

Add Bookmark
ICAO OIKQ
Type Airport
Status Operational
Latitude
26° 45' 16" N
26.754601
Longitude
55° 54' 8" E
55.902401
Local (GMT +4.5 ) UTC
Aug 30, 2016 05:42 am Aug 30, 2016 01:12
Sunrise-Sunset Local UTC
Begin Civil Twilight 06:00 am 01:30
Sunrise 06:24 am 01:54
Sunset 07:09 pm 14:39
End Civil Twilight 07:33 pm 15:03
VFR
VFR
MVFR
MVFR
IFR
IFR
LIFR
LIFR
Unknown
Unavailable

Current Weather

METAR Observed MVFR
OIKQ 300000Z 00000KT 5000 BR NSC 28/24 Q1001 Tue, Aug 30, 2016 @ 00:00 UTC
(1 Hour, 12 Minutes ago)
Marginal Visual Flight Rules
Wind Visibility Conditions
Calm 5,005 m
  • Mist
Temperatures Readings Precipitation
Current Temp
28°C
82°F
Dewpoint
24°C
75°F
Heat Index
32°C
89°
Humidity 79%
Altimeter 29.56" Hg
Sea Level Pressure 1,001 mb
Field Elevation
12 m
39 ft
None Recorded

Additional weather within a 92.6km radius of OIKQ

Map ICAO Location
OIKB 69.8km NE (042°)
VFR
VFR
MVFR
MVFR
IFR
IFR
LIFR
LIFR
Unknown
Unavailable
-
-

CheckWX.com is intended as a tool to help pilots better visualize weather data. It is not intended as a substitute for an official weather briefing obtained from a Flight Service Station. CheckWX.com does not meet the FAA requirements for an official pre-flight weather briefing. Therefore, it's important that pilots still call and obtain an official FSS pre-flight weather briefing.

© 2007-2016 CheckWX.com
01:12:15 UTC